Time;durP1;ratioP1;P1;durP2;ratioP2;P2;SDS_P1;SDS_P2;PMS_P1;PMS_P2;Temp;Humidity;BMP_temperature;BMP_pressure;BME280_temperature;BME280_humidity;BME280_pressure;Samples;Min_cycle;Max_cycle;Signal;HPM_P1;HPM_P2
2023/09/01 00:03:54;;;;;;;;;;;15.40;99.90;;;;;;6739002;88;20180;-76
2023/09/01 00:13:55;;;;;;;;;;;15.30;99.90;;;;;;6738571;88;20058;-75
2023/09/01 00:23:55;;;;;;;;;;;15.30;99.90;;;;;;6741537;88;20077;-76
2023/09/01 00:33:56;;;;;;;;;;;15.20;99.90;;;;;;6741348;88;20057;-76
2023/09/01 00:43:56;;;;;;;;;;;15.20;99.90;;;;;;6740994;88;20049;-76
2023/09/01 00:53:57;;;;;;;;;;;15.20;99.90;;;;;;6744668;88;20050;-76
2023/09/01 01:03:57;;;;;;;;;;;15.10;99.90;;;;;;6745058;88;20087;-74
2023/09/01 01:14:00;;;;;;;;;;;15.20;99.90;;;;;;6743533;88;20050;-75
2023/09/01 01:24:00;;;;;;;;;;;15.20;99.90;;;;;;6743993;88;20098;-74
2023/09/01 01:34:06;;;;;;;;;;;15.10;99.90;;;;;;6745531;88;20128;-75
2023/09/01 01:44:07;;;;;;;;;;;15.10;99.90;;;;;;6740688;88;20502;-76
2023/09/01 01:54:08;;;;;;;;;;;15.20;99.90;;;;;;6739886;88;20067;-75
2023/09/01 02:04:08;;;;;;;;;;;15.10;99.90;;;;;;6742307;88;20513;-76
2023/09/01 02:14:08;;;;;;;;;;;15.10;99.90;;;;;;6741118;88;20599;-76
2023/09/01 02:24:09;;;;;;;;;;;15.00;99.90;;;;;;6744881;88;20197;-77
2023/09/01 02:34:09;;;;;;;;;;;14.90;99.90;;;;;;6743234;88;20187;-76
2023/09/01 02:44:10;;;;;;;;;;;14.80;99.90;;;;;;6743515;76;20054;-77
2023/09/01 02:54:10;;;;;;;;;;;14.90;99.90;;;;;;6726064;88;20052;-78
2023/09/01 03:04:11;;;;;;;;;;;14.90;99.90;;;;;;6720748;88;20063;-78
2023/09/01 03:14:11;;;;;;;;;;;14.90;99.90;;;;;;6715020;88;20059;-77
2023/09/01 03:24:12;;;;;;;;;;;15.00;99.90;;;;;;6722271;88;20594;-77
2023/09/01 03:34:12;;;;;;;;;;;15.00;99.90;;;;;;6720904;88;20066;-75
2023/09/01 03:44:12;;;;;;;;;;;15.00;99.90;;;;;;6718747;88;20643;-78
2023/09/01 03:54:13;;;;;;;;;;;14.90;99.90;;;;;;6715718;88;20137;-77
2023/09/01 04:04:13;;;;;;;;;;;15.00;99.90;;;;;;6719214;88;20111;-76
2023/09/01 04:14:14;;;;;;;;;;;15.10;99.90;;;;;;6711793;88;20223;-76
2023/09/01 04:24:14;;;;;;;;;;;15.10;99.90;;;;;;6718346;88;20080;-76
2023/09/01 04:34:15;;;;;;;;;;;15.20;99.90;;;;;;6716976;88;20161;-76
2023/09/01 04:44:15;;;;;;;;;;;15.10;99.90;;;;;;6715513;88;20637;-77
2023/09/01 04:54:16;;;;;;;;;;;15.20;99.90;;;;;;6717743;88;20162;-77
2023/09/01 05:04:16;;;;;;;;;;;15.20;99.90;;;;;;6717439;88;20077;-82
2023/09/01 05:14:16;;;;;;;;;;;15.20;99.90;;;;;;6715964;88;20656;-76
2023/09/01 05:24:17;;;;;;;;;;;15.20;99.90;;;;;;6718617;88;20050;-76
2023/09/01 05:34:18;;;;;;;;;;;15.40;99.90;;;;;;6722982;88;20060;-76
2023/09/01 05:44:20;;;;;;;;;;;15.40;99.90;;;;;;6716423;88;20197;-76
2023/09/01 05:54:20;;;;;;;;;;;15.50;99.90;;;;;;6716970;88;20186;-75
2023/09/01 06:04:20;;;;;;;;;;;15.60;99.90;;;;;;6711446;88;20168;-76
2023/09/01 06:14:21;;;;;;;;;;;15.70;99.90;;;;;;6710937;88;20100;-76
2023/09/01 06:24:21;;;;;;;;;;;16.00;99.90;;;;;;6713458;88;20060;-77
2023/09/01 06:34:22;;;;;;;;;;;16.10;99.90;;;;;;6717810;88;20051;-76
2023/09/01 06:44:22;;;;;;;;;;;16.10;99.90;;;;;;6709471;88;20511;-77
2023/09/01 06:54:23;;;;;;;;;;;15.80;99.90;;;;;;6712501;88;20644;-76
2023/09/01 07:04:24;;;;;;;;;;;15.70;99.90;;;;;;6716622;88;20087;-75
2023/09/01 07:14:25;;;;;;;;;;;15.50;99.90;;;;;;6709337;88;20062;-74
2023/09/01 07:24:25;;;;;;;;;;;15.40;99.90;;;;;;6710838;88;20261;-73
2023/09/01 07:34:26;;;;;;;;;;;15.40;99.90;;;;;;6712490;88;20062;-74
2023/09/01 07:44:26;;;;;;;;;;;15.40;99.90;;;;;;6712225;88;20654;-75
2023/09/01 07:54:27;;;;;;;;;;;15.40;99.90;;;;;;6718624;88;20071;-74
2023/09/01 08:04:27;;;;;;;;;;;15.40;99.90;;;;;;6711333;88;20512;-74
2023/09/01 08:14:28;;;;;;;;;;;15.50;99.90;;;;;;6711039;88;20145;-77
2023/09/01 08:24:28;;;;;;;;;;;15.60;99.90;;;;;;6723606;88;20489;-74
2023/09/01 08:34:29;;;;;;;;;;;15.70;99.90;;;;;;6715232;88;20097;-74
2023/09/01 08:44:30;;;;;;;;;;;15.80;99.90;;;;;;6714588;88;20066;-73
2023/09/01 08:54:33;;;;;;;;;;;15.90;99.90;;;;;;6713029;88;20084;-73
2023/09/01 09:04:34;;;;;;;;;;;16.30;99.90;;;;;;6713883;88;20095;-74
2023/09/01 09:14:44;;;;;;;;;;;16.60;99.90;;;;;;6713092;88;20500;-74
2023/09/01 09:24:45;;;;;;;;;;;16.70;99.90;;;;;;6710950;88;20077;-75
2023/09/01 09:35:08;;;;;;;;;;;17.00;99.90;;;;;;6711301;88;20232;-74
2023/09/01 09:45:26;;;;;;;;;;;17.00;99.90;;;;;;6711079;88;20197;-74
2023/09/01 09:55:28;;;;;;;;;;;17.00;99.90;;;;;;6711753;88;20062;-75
2023/09/01 10:05:34;;;;;;;;;;;16.80;99.90;;;;;;6713502;88;20190;-75
2023/09/01 10:15:35;;;;;;;;;;;16.80;99.90;;;;;;6713338;88;20046;-74
2023/09/01 10:25:36;;;;;;;;;;;16.70;99.90;;;;;;6712284;88;20492;-74
2023/09/01 10:35:37;;;;;;;;;;;16.70;99.90;;;;;;6709007;88;20067;-74
2023/09/01 10:45:38;;;;;;;;;;;17.00;99.90;;;;;;6711297;88;20188;-75
2023/09/01 10:55:58;;;;;;;;;;;17.10;99.90;;;;;;6708587;88;20137;-75
2023/09/01 11:05:59;;;;;;;;;;;17.10;99.90;;;;;;6710344;88;20070;-75
2023/09/01 11:16:07;;;;;;;;;;;17.40;99.90;;;;;;6710163;88;20089;-75
2023/09/01 11:26:09;;;;;;;;;;;17.80;99.90;;;;;;6708551;88;20047;-75
2023/09/01 11:36:10;;;;;;;;;;;18.00;99.90;;;;;;6711507;88;20873;-76
2023/09/01 11:46:11;;;;;;;;;;;18.20;99.90;;;;;;6714603;88;20075;-76
2023/09/01 11:56:19;;;;;;;;;;;18.40;99.90;;;;;;6710115;88;20054;-76
2023/09/01 12:06:23;;;;;;;;;;;18.60;99.90;;;;;;6710311;88;20055;-76
2023/09/01 12:16:24;;;;;;;;;;;18.60;99.90;;;;;;6709635;88;20727;-76
2023/09/01 12:26:25;;;;;;;;;;;18.70;99.90;;;;;;6716050;88;20145;-76
2023/09/01 12:36:25;;;;;;;;;;;18.70;99.90;;;;;;6726075;88;20083;-76
2023/09/01 12:46:26;;;;;;;;;;;18.70;99.90;;;;;;6719018;88;20078;-76
2023/09/01 12:56:26;;;;;;;;;;;18.90;99.90;;;;;;6713264;88;20077;-75
2023/09/01 13:06:27;;;;;;;;;;;19.00;99.90;;;;;;6713349;88;20599;-78
2023/09/01 13:16:28;;;;;;;;;;;18.90;99.90;;;;;;6716047;88;20133;-76
2023/09/01 13:26:29;;;;;;;;;;;18.90;99.90;;;;;;6713015;88;20112;-76
2023/09/01 13:36:29;;;;;;;;;;;18.80;99.90;;;;;;6713565;88;20076;-76
2023/09/01 13:46:31;;;;;;;;;;;19.00;99.90;;;;;;6714591;88;20080;-76
2023/09/01 13:56:31;;;;;;;;;;;19.10;99.90;;;;;;6715361;88;20047;-76
2023/09/01 14:06:32;;;;;;;;;;;19.30;99.90;;;;;;6714462;88;20071;-76
2023/09/01 14:16:32;;;;;;;;;;;19.30;99.90;;;;;;6713545;88;20606;-76
2023/09/01 14:26:33;;;;;;;;;;;19.20;99.90;;;;;;6712465;88;20079;-76
2023/09/01 14:36:33;;;;;;;;;;;19.40;99.90;;;;;;6711243;88;20080;-76
2023/09/01 14:46:35;;;;;;;;;;;19.30;99.90;;;;;;6717952;88;20136;-76
2023/09/01 14:56:35;;;;;;;;;;;18.80;99.90;;;;;;6714299;88;20178;-76
2023/09/01 15:06:36;;;;;;;;;;;18.90;99.90;;;;;;6712556;88;20068;-76
2023/09/01 15:16:36;;;;;;;;;;;19.40;99.90;;;;;;6713440;88;20055;-76
2023/09/01 15:26:37;;;;;;;;;;;19.40;99.90;;;;;;6712852;88;20051;-75
2023/09/01 15:36:37;;;;;;;;;;;19.30;99.90;;;;;;6713243;88;20084;-76
2023/09/01 15:46:39;;;;;;;;;;;19.50;99.90;;;;;;6713426;88;20092;-75
2023/09/01 15:56:39;;;;;;;;;;;19.40;99.90;;;;;;6716232;88;20076;-76
2023/09/01 16:06:39;;;;;;;;;;;19.20;99.90;;;;;;6718030;88;20662;-76
2023/09/01 16:16:40;;;;;;;;;;;18.90;99.90;;;;;;6721239;88;20080;-76
2023/09/01 16:26:41;;;;;;;;;;;18.70;99.90;;;;;;6717832;88;20068;-77
2023/09/01 16:36:41;;;;;;;;;;;18.90;99.90;;;;;;6716544;88;20114;-75
2023/09/01 16:46:41;;;;;;;;;;;19.00;99.90;;;;;;6712949;88;20075;-75
2023/09/01 16:56:42;;;;;;;;;;;19.10;99.90;;;;;;6709421;88;20604;-75
2023/09/01 17:06:42;;;;;;;;;;;19.10;99.90;;;;;;6709399;88;20087;-74
2023/09/01 17:16:43;;;;;;;;;;;19.00;99.90;;;;;;6709256;88;20457;-75
2023/09/01 17:26:43;;;;;;;;;;;18.70;99.90;;;;;;6713070;88;20165;-75
2023/09/01 17:36:44;;;;;;;;;;;18.30;99.90;;;;;;6710233;88;20524;-74
2023/09/01 17:46:44;;;;;;;;;;;18.10;99.90;;;;;;6715184;88;20063;-77
2023/09/01 17:56:45;;;;;;;;;;;17.70;99.90;;;;;;6709292;88;20083;-76
2023/09/01 18:06:46;;;;;;;;;;;17.70;99.90;;;;;;6707589;88;20184;-75
2023/09/01 18:16:46;;;;;;;;;;;17.50;99.90;;;;;;6706092;88;20058;-75
2023/09/01 18:26:47;;;;;;;;;;;17.40;99.90;;;;;;6711202;88;20138;-75
2023/09/01 18:36:47;;;;;;;;;;;17.10;99.90;;;;;;6710751;88;20051;-75
2023/09/01 18:46:48;;;;;;;;;;;16.90;99.90;;;;;;6706275;88;20057;-75
2023/09/01 18:56:48;;;;;;;;;;;16.60;99.90;;;;;;6707723;88;20712;-75
2023/09/01 19:06:49;;;;;;;;;;;16.40;99.90;;;;;;6708661;88;20076;-75
2023/09/01 19:16:49;;;;;;;;;;;16.30;99.90;;;;;;6714435;88;20143;-73
2023/09/01 19:26:49;;;;;;;;;;;16.10;99.90;;;;;;6706318;88;20071;-74
2023/09/01 19:36:50;;;;;;;;;;;16.00;99.90;;;;;;6707424;88;20079;-76
2023/09/01 19:46:51;;;;;;;;;;;15.90;99.90;;;;;;6712898;88;20066;-75
2023/09/01 19:56:53;;;;;;;;;;;16.00;99.90;;;;;;6713521;88;20109;-76
2023/09/01 20:06:53;;;;;;;;;;;16.10;99.90;;;;;;6709978;88;20074;-75
2023/09/01 20:16:54;;;;;;;;;;;16.00;99.90;;;;;;6710013;88;20526;-74
2023/09/01 20:26:55;;;;;;;;;;;15.90;99.90;;;;;;6711789;88;20894;-74
2023/09/01 20:36:55;;;;;;;;;;;15.80;99.90;;;;;;6704422;88;20067;-75
2023/09/01 20:46:55;;;;;;;;;;;15.70;99.90;;;;;;6712596;88;20087;-75
2023/09/01 20:56:56;;;;;;;;;;;15.70;99.90;;;;;;6711497;88;20527;-75
2023/09/01 21:06:57;;;;;;;;;;;15.60;99.90;;;;;;6709278;88;20079;-74
2023/09/01 21:16:57;;;;;;;;;;;15.50;99.90;;;;;;6706198;88;20079;-76
2023/09/01 21:26:58;;;;;;;;;;;15.40;99.90;;;;;;6711079;88;20090;-74
2023/09/01 21:36:58;;;;;;;;;;;15.50;99.90;;;;;;6709682;88;20133;-76
2023/09/01 21:46:59;;;;;;;;;;;15.50;99.90;;;;;;6711511;88;20089;-76
2023/09/01 21:57:04;;;;;;;;;;;15.50;99.90;;;;;;6713433;88;20067;-75
2023/09/01 22:07:06;;;;;;;;;;;15.60;99.90;;;;;;6712014;88;20066;-76
2023/09/01 22:17:06;;;;;;;;;;;15.50;99.90;;;;;;6719190;88;20075;-76
2023/09/01 22:27:07;;;;;;;;;;;15.40;99.90;;;;;;6716931;88;20097;-75
2023/09/01 22:37:07;;;;;;;;;;;15.30;99.90;;;;;;6713734;88;20067;-77
2023/09/01 22:47:08;;;;;;;;;;;15.20;99.90;;;;;;6714317;88;20197;-75
2023/09/01 22:57:11;;;;;;;;;;;15.30;99.90;;;;;;6714084;88;20074;-75
2023/09/01 23:07:12;;;;;;;;;;;15.30;99.90;;;;;;6713239;88;20101;-76
2023/09/01 23:17:13;;;;;;;;;;;15.10;99.90;;;;;;6712368;88;20980;-76
2023/09/01 23:27:14;;;;;;;;;;;15.20;99.90;;;;;;6716440;88;20140;-76
2023/09/01 23:37:14;;;;;;;;;;;15.10;99.90;;;;;;6715363;88;20100;-76
2023/09/01 23:47:15;;;;;;;;;;;15.20;99.90;;;;;;6712942;88;20058;-76
2023/09/01 23:57:15;;;;;;;;;;;15.30;99.90;;;;;;6720734;88;20126;-76
